createdAt,value
2023-03-30T00:00:54.621Z,17.03
2023-03-30T00:01:56.214Z,13.90
2023-03-30T00:02:58.840Z,24.13
2023-03-30T00:04:00.955Z,26.53
2023-03-30T00:05:03.195Z,15.80
2023-03-30T00:06:06.828Z,19.80
2023-03-30T00:07:08.467Z,14.27
2023-03-30T00:08:10.877Z,17.00
2023-03-30T00:09:12.802Z,14.52
2023-03-30T00:10:19.988Z,24.97
2023-03-30T00:11:23.606Z,20.90
2023-03-30T00:12:25.199Z,17.70
2023-03-30T00:13:28.272Z,19.03
2023-03-30T00:14:30.469Z,17.63
2023-03-30T00:15:32.330Z,19.83
2023-03-30T00:16:34.156Z,20.90
2023-03-30T00:17:37.388Z,15.27
2023-03-30T00:18:40.546Z,14.10
2023-03-30T00:19:42.146Z,19.00
2023-03-30T00:20:45.261Z,18.23
2023-03-30T00:21:47.596Z,18.20
2023-03-30T00:22:49.687Z,19.77
2023-03-30T00:23:52.584Z,19.07
2023-03-30T00:24:54.863Z,18.70
2023-03-30T00:25:56.707Z,25.43
2023-03-30T00:26:58.648Z,21.73
2023-03-30T00:28:00.640Z,20.53
2023-03-30T00:29:02.306Z,21.13
2023-03-30T00:30:07.091Z,29.87
2023-03-30T00:31:10.750Z,20.87
2023-03-30T00:32:12.846Z,12.40
2023-03-30T00:33:16.031Z,26.83
2023-03-30T00:34:17.619Z,20.20
2023-03-30T00:35:21.093Z,21.30
2023-03-30T00:36:22.983Z,22.97
2023-03-30T00:37:26.224Z,24.00
2023-03-30T00:38:28.406Z,21.95
2023-03-30T00:39:30.348Z,28.33
2023-03-30T00:40:34.203Z,13.40
2023-03-30T00:41:37.255Z,25.87
2023-03-30T00:42:40.886Z,22.13
2023-03-30T00:43:59.606Z,25.40
2023-03-30T00:45:11.379Z,15.23
2023-03-30T00:46:13.232Z,10.77
2023-03-30T00:47:17.273Z,18.50
2023-03-30T00:48:27.498Z,19.57
2023-03-30T00:49:29.734Z,21.27
2023-03-30T00:50:43.432Z,25.73
2023-03-30T00:51:46.168Z,26.67
2023-03-30T00:52:53.639Z,13.37
2023-03-30T00:53:59.971Z,13.13
2023-03-30T00:55:01.959Z,28.23
2023-03-30T00:56:07.718Z,26.63
2023-03-30T00:57:09.585Z,23.27
2023-03-30T00:58:13.136Z,14.50
2023-03-30T00:59:15.642Z,24.93
2023-03-30T01:00:18.930Z,12.07
2023-03-30T01:01:31.752Z,29.85
2023-03-30T01:02:40.130Z,14.40
2023-03-30T01:03:48.514Z,15.83
2023-03-30T01:04:56.987Z,15.23
2023-03-30T01:06:02.348Z,17.80
2023-03-30T01:07:05.415Z,19.98
2023-03-30T01:08:10.288Z,20.97
2023-03-30T01:09:18.026Z,23.80
2023-03-30T01:10:20.302Z,23.30
2023-03-30T01:11:23.263Z,27.07
2023-03-30T01:12:25.760Z,22.60
2023-03-30T01:13:30.150Z,20.93
2023-03-30T01:14:32.567Z,17.73
2023-03-30T01:15:38.234Z,20.80
2023-03-30T01:17:06.751Z,15.77
2023-03-30T01:18:27.659Z,14.10
2023-03-30T01:19:44.241Z,20.10
2023-03-30T01:20:45.958Z,20.93
2023-03-30T01:21:50.723Z,14.23
2023-03-30T01:23:10.881Z,27.27
2023-03-30T01:24:43.000Z,17.37
2023-03-30T01:25:56.806Z,24.27
2023-03-30T01:27:23.659Z,21.38
2023-03-30T01:28:37.775Z,20.92
2023-03-30T01:29:49.572Z,34.33
2023-03-30T01:31:25.932Z,18.47
2023-03-30T01:32:49.973Z,19.40
2023-03-30T01:34:28.136Z,29.73
2023-03-30T01:35:57.755Z,17.90
2023-03-30T01:37:14.609Z,22.13
2023-03-30T01:38:52.314Z,24.30
2023-03-30T01:39:53.865Z,28.40
2023-03-30T01:41:33.569Z,19.50
2023-03-30T01:43:00.046Z,13.30
2023-03-30T01:44:08.951Z,20.83
2023-03-30T01:45:35.005Z,34.37
2023-03-30T01:46:41.554Z,22.93
2023-03-30T01:48:44.675Z,15.67
2023-03-30T01:49:49.911Z,27.60
2023-03-30T01:50:59.152Z,32.77
2023-03-30T01:52:13.368Z,30.17
2023-03-30T01:53:31.401Z,27.40
2023-03-30T01:54:39.353Z,23.00
2023-03-30T01:56:01.614Z,16.73
2023-03-30T01:57:09.948Z,21.10
2023-03-30T01:58:23.373Z,18.03
2023-03-30T01:59:31.279Z,20.93
2023-03-30T02:00:36.786Z,16.47
2023-03-30T02:01:41.682Z,21.83
2023-03-30T02:02:53.225Z,23.33
2023-03-30T02:03:58.674Z,31.80
2023-03-30T02:05:07.338Z,18.30
2023-03-30T02:06:17.227Z,25.53
2023-03-30T02:07:24.837Z,23.35
2023-03-30T02:08:33.021Z,31.50
2023-03-30T02:09:38.837Z,22.00
2023-03-30T02:10:42.625Z,16.40
2023-03-30T02:11:49.566Z,37.90
2023-03-30T02:12:52.563Z,26.50
2023-03-30T02:13:58.579Z,34.90
2023-03-30T02:15:08.469Z,29.67
2023-03-30T02:16:21.556Z,26.77
2023-03-30T02:17:24.953Z,15.50
2023-03-30T02:18:27.241Z,22.13
2023-03-30T02:19:30.479Z,34.37
2023-03-30T02:20:35.632Z,25.03
2023-03-30T02:21:37.793Z,27.33
2023-03-30T02:22:41.398Z,21.43
2023-03-30T02:23:46.527Z,16.83
2023-03-30T02:24:52.060Z,22.07
2023-03-30T02:25:53.830Z,30.03
2023-03-30T02:26:55.895Z,22.30
2023-03-30T02:27:58.234Z,26.43
2023-03-30T02:29:00.126Z,19.10
2023-03-30T02:30:02.071Z,20.00
2023-03-30T02:31:10.248Z,25.40
2023-03-30T02:32:19.010Z,19.83
2023-03-30T02:33:55.271Z,28.07
2023-03-30T02:35:38.842Z,27.30
2023-03-30T02:37:18.162Z,25.43
2023-03-30T02:38:33.306Z,19.48
2023-03-30T02:39:56.588Z,27.73
2023-03-30T02:41:24.505Z,25.27
2023-03-30T02:42:45.922Z,25.73
2023-03-30T02:44:11.654Z,29.43
2023-03-30T02:45:45.549Z,22.57
2023-03-30T02:47:01.503Z,24.63
2023-03-30T02:48:28.470Z,22.37
2023-03-30T02:49:47.054Z,24.77
2023-03-30T02:51:09.855Z,25.83
2023-03-30T02:52:23.070Z,17.50
2023-03-30T02:53:41.755Z,39.20
2023-03-30T02:54:46.499Z,29.57
2023-03-30T02:55:56.652Z,20.80
2023-03-30T02:57:44.197Z,24.17
2023-03-30T02:58:52.082Z,40.45
2023-03-30T03:00:14.264Z,27.40
2023-03-30T03:01:37.209Z,23.47
2023-03-30T03:02:43.950Z,28.30
2023-03-30T03:03:49.036Z,21.63
2023-03-30T03:04:53.540Z,21.17
2023-03-30T03:05:56.368Z,21.05
2023-03-30T03:06:59.226Z,19.97
2023-03-30T03:08:02.138Z,22.88
2023-03-30T03:09:04.493Z,24.83
2023-03-30T03:10:08.239Z,27.17
2023-03-30T03:11:11.531Z,15.10
2023-03-30T03:12:13.436Z,25.43
2023-03-30T03:13:16.278Z,26.77
2023-03-30T03:14:18.235Z,24.47
2023-03-30T03:15:22.600Z,17.52
2023-03-30T03:16:24.248Z,22.37
2023-03-30T03:17:29.671Z,21.80
2023-03-30T03:18:32.248Z,15.70
2023-03-30T03:19:33.852Z,30.67
2023-03-30T03:20:35.588Z,17.83
2023-03-30T03:21:37.837Z,33.73
2023-03-30T03:22:39.590Z,34.40
2023-03-30T03:23:43.383Z,35.43
2023-03-30T03:24:45.139Z,23.47
2023-03-30T03:25:48.433Z,17.00
2023-03-30T03:26:51.622Z,25.90
2023-03-30T03:27:53.343Z,14.43
2023-03-30T03:28:55.357Z,18.93
2023-03-30T03:29:58.141Z,22.65
2023-03-30T03:31:00.072Z,18.10
2023-03-30T03:32:03.316Z,19.23
2023-03-30T03:33:05.185Z,24.87
2023-03-30T03:34:07.258Z,19.30
2023-03-30T03:35:09.543Z,25.00
2023-03-30T03:36:13.497Z,22.97
2023-03-30T03:37:15.739Z,23.98
2023-03-30T03:38:17.778Z,24.17
2023-03-30T03:39:20.147Z,16.93
2023-03-30T03:40:21.984Z,14.73
2023-03-30T03:41:23.926Z,30.87
2023-03-30T03:42:26.017Z,21.23
2023-03-30T03:43:27.693Z,21.10
2023-03-30T03:44:29.459Z,21.97
2023-03-30T03:45:33.140Z,36.27
2023-03-30T03:46:34.846Z,27.43
2023-03-30T03:47:37.694Z,19.47
2023-03-30T03:48:39.538Z,31.93
2023-03-30T03:49:41.307Z,19.57
2023-03-30T03:50:44.008Z,23.00
2023-03-30T03:51:46.505Z,16.63
2023-03-30T03:52:48.890Z,26.63
2023-03-30T03:53:50.770Z,18.57
2023-03-30T03:54:52.654Z,34.20
2023-03-30T03:55:56.515Z,15.53
2023-03-30T03:56:58.632Z,22.03
2023-03-30T03:58:00.862Z,23.10
2023-03-30T03:59:05.029Z,15.37
2023-03-30T04:00:15.867Z,20.50
2023-03-30T04:01:18.155Z,17.97
2023-03-30T04:02:21.243Z,14.70
2023-03-30T04:03:26.022Z,16.53
2023-03-30T04:04:28.056Z,16.50
2023-03-30T04:05:29.919Z,19.70
2023-03-30T04:06:31.973Z,20.20
2023-03-30T04:07:36.282Z,21.63
2023-03-30T04:08:38.274Z,29.87
2023-03-30T04:09:40.629Z,19.33
2023-03-30T04:10:42.437Z,22.37
2023-03-30T04:11:44.303Z,28.77
2023-03-30T04:12:46.973Z,24.65
2023-03-30T04:13:50.444Z,23.13
2023-03-30T04:14:52.017Z,24.47
2023-03-30T04:15:54.040Z,23.77
2023-03-30T04:16:59.965Z,17.17
2023-03-30T04:18:02.137Z,25.60
2023-03-30T04:19:05.267Z,17.07
2023-03-30T04:20:11.596Z,19.80
2023-03-30T04:21:13.441Z,28.05
2023-03-30T04:22:16.280Z,21.90
2023-03-30T04:23:22.087Z,28.07
2023-03-30T04:24:23.948Z,21.07
2023-03-30T04:25:25.991Z,27.07
2023-03-30T04:26:33.266Z,19.97
2023-03-30T04:27:35.125Z,18.23
2023-03-30T04:28:38.114Z,21.50
2023-03-30T04:29:40.877Z,31.53
2023-03-30T04:30:46.236Z,17.50
2023-03-30T04:31:50.801Z,19.87
2023-03-30T04:33:03.902Z,28.40
2023-03-30T04:34:06.027Z,28.73
2023-03-30T04:35:09.568Z,25.10
2023-03-30T04:36:17.986Z,30.07
2023-03-30T04:37:30.198Z,27.90
2023-03-30T04:38:31.742Z,23.47
2023-03-30T04:39:33.868Z,15.27
2023-03-30T04:40:35.656Z,25.93
2023-03-30T04:41:38.056Z,28.70
2023-03-30T04:42:40.157Z,27.97
2023-03-30T04:43:42.109Z,22.23
2023-03-30T04:44:43.649Z,24.17
2023-03-30T04:45:51.916Z,19.57
2023-03-30T04:46:53.587Z,20.80
2023-03-30T04:47:55.204Z,21.05
2023-03-30T04:48:57.178Z,17.80
2023-03-30T04:49:59.272Z,15.97
2023-03-30T04:51:01.410Z,14.03
2023-03-30T04:52:03.451Z,24.60
2023-03-30T04:53:05.498Z,17.60
2023-03-30T04:54:08.380Z,21.37
2023-03-30T04:55:11.966Z,23.00
2023-03-30T04:56:13.890Z,21.20
2023-03-30T04:57:16.614Z,26.87
2023-03-30T04:58:19.484Z,22.83
2023-03-30T04:59:21.544Z,19.43
2023-03-30T05:00:23.736Z,25.83
2023-03-30T05:01:25.441Z,30.33
2023-03-30T05:02:27.552Z,20.23
2023-03-30T05:03:31.403Z,22.03
2023-03-30T05:04:36.194Z,19.23
2023-03-30T05:05:38.396Z,21.07
2023-03-30T05:06:40.245Z,28.60
2023-03-30T05:07:42.737Z,14.30
2023-03-30T05:08:44.743Z,22.70
2023-03-30T05:09:46.479Z,26.70
2023-03-30T05:10:48.304Z,22.50
2023-03-30T05:11:50.968Z,34.47
2023-03-30T05:12:56.584Z,17.23
2023-03-30T05:13:58.353Z,22.93
2023-03-30T05:15:00.476Z,28.85
2023-03-30T05:16:03.625Z,19.63
2023-03-30T05:17:05.733Z,23.93
2023-03-30T05:18:07.977Z,24.63
2023-03-30T05:19:10.997Z,27.80
2023-03-30T05:20:13.913Z,26.40
2023-03-30T05:21:15.911Z,25.03
2023-03-30T05:22:17.584Z,33.90
2023-03-30T05:23:19.373Z,15.63
2023-03-30T05:24:21.151Z,26.73
2023-03-30T05:25:22.962Z,18.20
2023-03-30T05:26:25.118Z,19.70
2023-03-30T05:27:27.126Z,22.30
2023-03-30T05:28:31.110Z,22.57
2023-03-30T05:29:34.149Z,16.17
2023-03-30T05:30:36.447Z,31.85
2023-03-30T05:31:38.197Z,18.20
2023-03-30T05:32:41.683Z,24.30
2023-03-30T05:33:44.035Z,17.37
2023-03-30T05:34:46.992Z,26.73
2023-03-30T05:35:48.874Z,24.43
2023-03-30T05:36:50.619Z,20.87
2023-03-30T05:37:54.272Z,32.00
2023-03-30T05:38:56.265Z,33.33
2023-03-30T05:39:58.057Z,29.63
2023-03-30T05:40:59.852Z,20.47
2023-03-30T05:42:01.877Z,36.43
2023-03-30T05:43:04.401Z,22.23
2023-03-30T05:44:06.479Z,21.40
2023-03-30T05:45:12.271Z,37.17
2023-03-30T05:46:14.209Z,28.43
2023-03-30T05:47:18.518Z,28.17
2023-03-30T05:48:21.345Z,24.57
2023-03-30T05:49:23.170Z,30.97
2023-03-30T05:50:25.009Z,33.43
2023-03-30T05:51:27.183Z,20.37
2023-03-30T05:52:30.920Z,17.40
2023-03-30T05:53:33.226Z,23.10
2023-03-30T05:54:35.436Z,32.53
2023-03-30T05:55:39.117Z,20.93
2023-03-30T05:56:42.614Z,33.88
2023-03-30T05:57:45.689Z,36.73
2023-03-30T05:58:47.422Z,32.42
2023-03-30T05:59:49.906Z,23.47
2023-03-30T06:00:52.595Z,36.20
2023-03-30T06:01:54.330Z,27.53
2023-03-30T06:02:56.452Z,40.57
2023-03-30T06:03:58.537Z,30.23
2023-03-30T06:05:02.382Z,29.80
2023-03-30T06:06:05.447Z,27.33
2023-03-30T06:07:09.527Z,29.00
2023-03-30T06:08:14.109Z,28.20
2023-03-30T06:09:16.210Z,27.37
2023-03-30T06:10:18.416Z,30.47
2023-03-30T06:11:20.154Z,31.10
2023-03-30T06:12:23.331Z,40.23
2023-03-30T06:13:25.909Z,31.00
2023-03-30T06:14:27.900Z,25.53
2023-03-30T06:15:29.753Z,39.70
2023-03-30T06:16:32.347Z,29.83
2023-03-30T06:17:34.262Z,31.50
2023-03-30T06:18:37.329Z,34.57
2023-03-30T06:19:40.435Z,29.47
2023-03-30T06:20:43.318Z,32.90
2023-03-30T06:21:45.041Z,29.03
2023-03-30T06:22:48.625Z,27.70
2023-03-30T06:23:51.076Z,30.20
2023-03-30T06:24:52.979Z,35.60
2023-03-30T06:25:55.620Z,34.30
2023-03-30T06:26:57.451Z,32.87
2023-03-30T06:27:59.801Z,26.13
2023-03-30T06:29:02.483Z,28.73
2023-03-30T06:30:06.377Z,40.17
2023-03-30T06:31:12.286Z,35.57
2023-03-30T06:32:14.096Z,31.13
2023-03-30T06:33:18.131Z,31.40
2023-03-30T06:34:20.691Z,37.47
2023-03-30T06:35:22.955Z,40.33
2023-03-30T06:36:45.143Z,21.50
2023-03-30T06:37:47.588Z,49.07
2023-03-30T06:38:50.143Z,33.93
2023-03-30T06:39:52.610Z,27.40
2023-03-30T06:40:54.559Z,29.77
2023-03-30T06:41:56.989Z,27.90
2023-03-30T06:42:58.585Z,22.87
2023-03-30T06:44:02.118Z,29.83
2023-03-30T06:45:04.553Z,34.87
2023-03-30T06:46:07.540Z,13.37
2023-03-30T06:47:11.774Z,25.37
2023-03-30T06:48:13.672Z,21.57
2023-03-30T06:49:15.802Z,25.83
2023-03-30T06:50:17.993Z,26.33
2023-03-30T06:51:21.465Z,26.97
2023-03-30T06:52:23.768Z,32.40
2023-03-30T06:53:27.070Z,23.20
2023-03-30T06:54:28.785Z,29.60
2023-03-30T06:55:32.381Z,30.30
2023-03-30T06:56:35.483Z,20.73
2023-03-30T06:57:38.007Z,26.97
2023-03-30T06:58:39.599Z,24.07
2023-03-30T06:59:42.020Z,24.37
2023-03-30T07:00:43.913Z,22.73
2023-03-30T07:01:46.670Z,30.58
2023-03-30T07:02:48.418Z,28.30
2023-03-30T07:03:53.474Z,34.30
2023-03-30T07:04:55.395Z,25.13
2023-03-30T07:05:58.838Z,26.97
2023-03-30T07:07:02.368Z,23.00
2023-03-30T07:08:06.026Z,32.43
2023-03-30T07:09:08.138Z,21.73
2023-03-30T07:10:11.001Z,22.70
2023-03-30T07:11:12.687Z,20.67
2023-03-30T07:12:14.340Z,28.40
2023-03-30T07:13:19.371Z,27.30
2023-03-30T07:14:21.371Z,30.48
2023-03-30T07:15:24.292Z,36.33
2023-03-30T07:16:26.165Z,31.77
2023-03-30T07:17:28.672Z,27.80
2023-03-30T07:18:30.511Z,29.50
2023-03-30T07:19:32.929Z,30.83
2023-03-30T07:20:35.407Z,15.93
2023-03-30T07:21:37.421Z,26.70
2023-03-30T07:22:39.285Z,26.23
2023-03-30T07:23:41.793Z,24.00
2023-03-30T07:24:44.943Z,16.80
2023-03-30T07:25:47.092Z,18.80
2023-03-30T07:26:50.157Z,33.57
2023-03-30T07:27:52.407Z,24.60
2023-03-30T07:28:54.669Z,21.50
2023-03-30T07:30:00.514Z,34.93
2023-03-30T07:31:14.451Z,26.13
2023-03-30T07:32:17.631Z,17.93
2023-03-30T07:33:22.226Z,21.20
2023-03-30T07:34:24.638Z,24.33
2023-03-30T07:35:27.386Z,23.80
2023-03-30T07:36:29.287Z,26.90
2023-03-30T07:37:32.700Z,24.47
2023-03-30T07:38:34.948Z,37.10
2023-03-30T07:39:37.275Z,30.50
2023-03-30T07:40:39.318Z,21.93
2023-03-30T07:41:41.482Z,27.67
2023-03-30T07:42:44.228Z,20.07
2023-03-30T07:43:46.347Z,20.70
2023-03-30T07:44:48.175Z,24.93
2023-03-30T07:45:49.891Z,26.80
2023-03-30T07:46:52.519Z,13.40
2023-03-30T07:47:54.269Z,17.60
2023-03-30T07:48:56.014Z,19.47
2023-03-30T07:49:58.320Z,21.30
2023-03-30T07:51:07.007Z,30.87
2023-03-30T07:52:08.698Z,25.70
2023-03-30T07:53:10.917Z,20.80
2023-03-30T07:54:13.683Z,22.93
2023-03-30T07:55:15.727Z,30.43
2023-03-30T07:56:17.778Z,18.73
2023-03-30T07:57:19.625Z,19.77
2023-03-30T07:58:21.707Z,29.90
2023-03-30T07:59:24.123Z,23.53
2023-03-30T08:00:25.997Z,23.70
2023-03-30T08:01:28.659Z,31.60
2023-03-30T08:02:30.820Z,30.53
2023-03-30T08:03:33.202Z,22.07
2023-03-30T08:04:35.086Z,21.33
2023-03-30T08:05:37.189Z,24.50
2023-03-30T08:06:40.076Z,20.57
2023-03-30T08:07:44.370Z,24.33
2023-03-30T08:08:46.872Z,23.00
2023-03-30T08:09:49.331Z,16.67
2023-03-30T08:10:51.543Z,22.23
2023-03-30T08:11:54.663Z,16.53
2023-03-30T08:12:57.650Z,13.90
2023-03-30T08:13:59.683Z,17.40
2023-03-30T08:15:02.237Z,20.13
2023-03-30T08:16:05.021Z,14.40
2023-03-30T08:17:09.241Z,20.90
2023-03-30T08:18:13.387Z,22.10
2023-03-30T08:19:15.200Z,11.80
2023-03-30T08:20:18.377Z,20.17
2023-03-30T08:21:20.668Z,15.88
2023-03-30T08:22:23.868Z,22.77
2023-03-30T08:23:26.135Z,28.40
2023-03-30T08:24:28.046Z,15.13
2023-03-30T08:25:30.435Z,13.70
2023-03-30T08:26:33.663Z,20.75
2023-03-30T08:27:36.085Z,13.57
2023-03-30T08:28:39.339Z,11.33
2023-03-30T08:29:41.385Z,16.23
2023-03-30T08:30:43.168Z,13.10
2023-03-30T08:31:45.746Z,15.40
2023-03-30T08:32:48.951Z,12.33
2023-03-30T08:33:52.488Z,15.27
2023-03-30T08:34:55.721Z,14.83
2023-03-30T08:35:57.730Z,14.47
2023-03-30T08:36:59.771Z,10.03
2023-03-30T08:38:01.732Z,9.20
2023-03-30T08:39:05.688Z,16.30
2023-03-30T08:40:12.880Z,18.07
2023-03-30T08:41:37.063Z,8.50
2023-03-30T08:43:00.197Z,12.30
2023-03-30T08:44:15.989Z,8.50
2023-03-30T08:45:19.402Z,13.83
2023-03-30T08:46:21.753Z,6.70
2023-03-30T08:47:33.684Z,5.80
2023-03-30T08:48:38.597Z,7.50
2023-03-30T08:49:55.406Z,5.55
2023-03-30T08:51:06.140Z,7.70
2023-03-30T08:52:23.195Z,10.97
2023-03-30T08:53:25.703Z,9.53
2023-03-30T08:54:29.885Z,11.90
2023-03-30T08:55:48.870Z,11.30
2023-03-30T08:57:02.320Z,5.83
2023-03-30T08:58:14.003Z,11.27
2023-03-30T08:59:21.835Z,8.33
2023-03-30T09:00:41.206Z,6.73
2023-03-30T09:01:55.376Z,11.27
2023-03-30T09:03:23.483Z,7.00
2023-03-30T09:04:57.347Z,5.77
2023-03-30T09:06:09.366Z,4.67
2023-03-30T09:08:06.438Z,8.03
2023-03-30T09:09:14.030Z,5.22
2023-03-30T09:10:17.434Z,3.17
2023-03-30T09:11:36.388Z,6.10
2023-03-30T09:12:44.319Z,12.17
2023-03-30T09:13:47.739Z,8.80
2023-03-30T09:15:00.261Z,15.30
2023-03-30T09:16:18.582Z,4.67
2023-03-30T09:17:32.334Z,5.60
2023-03-30T09:18:40.276Z,9.23
2023-03-30T09:19:58.869Z,8.80
2023-03-30T09:21:03.485Z,4.60
2023-03-30T09:22:07.642Z,7.83
2023-03-30T09:23:14.897Z,6.83
2023-03-30T09:24:25.858Z,8.10
2023-03-30T09:25:42.719Z,8.40
2023-03-30T09:27:14.537Z,7.83
2023-03-30T09:28:35.285Z,6.23
2023-03-30T09:29:46.964Z,3.27
2023-03-30T09:30:58.505Z,3.70
2023-03-30T09:32:06.713Z,8.83
2023-03-30T09:33:32.262Z,8.90
2023-03-30T09:34:48.262Z,6.20
2023-03-30T09:36:06.553Z,6.20
2023-03-30T09:37:22.536Z,8.40
2023-03-30T09:38:25.942Z,7.97
2023-03-30T09:39:31.640Z,9.40
2023-03-30T09:40:54.278Z,6.15
2023-03-30T09:42:18.019Z,5.87
2023-03-30T09:43:32.991Z,8.80
2023-03-30T09:45:15.753Z,6.47
2023-03-30T09:46:17.873Z,10.13
2023-03-30T09:47:25.041Z,9.90
2023-03-30T09:48:27.335Z,6.03
2023-03-30T09:49:38.797Z,6.87
2023-03-30T09:50:44.405Z,5.57
2023-03-30T09:52:05.325Z,4.83
2023-03-30T09:53:20.180Z,8.97
2023-03-30T09:54:23.094Z,4.63
2023-03-30T09:55:38.644Z,5.33
2023-03-30T09:56:51.907Z,3.95
2023-03-30T09:57:54.739Z,7.27
2023-03-30T09:58:56.875Z,11.43
2023-03-30T10:00:01.406Z,12.00
2023-03-30T10:01:15.299Z,8.80
2023-03-30T10:02:20.382Z,8.43
2023-03-30T10:03:23.978Z,9.30
2023-03-30T10:04:26.138Z,10.20
2023-03-30T10:05:28.992Z,6.33
2023-03-30T10:06:34.996Z,12.30
2023-03-30T10:07:41.448Z,8.27
2023-03-30T10:08:52.345Z,12.23
2023-03-30T10:09:56.184Z,5.43
2023-03-30T10:10:59.720Z,7.40
2023-03-30T10:12:01.701Z,6.70
2023-03-30T10:13:16.518Z,8.93
2023-03-30T10:14:32.725Z,5.60
2023-03-30T10:15:41.076Z,14.57
2023-03-30T10:16:44.436Z,10.80
2023-03-30T10:17:48.332Z,7.77
2023-03-30T10:18:53.626Z,6.20
2023-03-30T10:20:26.860Z,13.40
2023-03-30T10:21:40.104Z,10.30
2023-03-30T10:22:53.879Z,9.27
2023-03-30T10:24:29.645Z,9.43
2023-03-30T10:25:33.694Z,5.10
2023-03-30T10:26:39.090Z,6.07
2023-03-30T10:27:41.873Z,7.30
2023-03-30T10:28:55.370Z,4.97
2023-03-30T10:29:57.046Z,7.10
2023-03-30T10:31:02.440Z,7.50
2023-03-30T10:32:15.757Z,7.13
2023-03-30T10:33:17.686Z,10.13
2023-03-30T10:34:33.552Z,12.38
2023-03-30T10:35:39.575Z,7.37
2023-03-30T10:36:41.509Z,9.83
2023-03-30T10:37:46.995Z,10.32
2023-03-30T10:38:50.107Z,10.10
2023-03-30T10:39:55.594Z,10.83
2023-03-30T10:41:03.336Z,13.13
2023-03-30T10:42:09.715Z,10.25
2023-03-30T10:43:21.971Z,12.17
2023-03-30T10:44:41.606Z,7.28
2023-03-30T10:45:52.579Z,9.17
2023-03-30T10:47:11.632Z,6.70
2023-03-30T10:48:40.262Z,6.75
2023-03-30T10:49:49.067Z,8.57
2023-03-30T10:51:24.830Z,8.73
2023-03-30T10:52:59.784Z,5.63
2023-03-30T10:54:30.089Z,11.40
2023-03-30T10:55:47.230Z,8.50
2023-03-30T10:56:49.004Z,15.07
2023-03-30T10:58:00.355Z,5.70
2023-03-30T10:59:06.851Z,10.27
2023-03-30T11:00:27.219Z,8.10
2023-03-30T11:01:47.450Z,9.87
2023-03-30T11:03:20.559Z,8.00
2023-03-30T11:04:35.711Z,8.77
2023-03-30T11:05:43.610Z,7.70
2023-03-30T11:06:45.926Z,6.40
2023-03-30T11:08:04.662Z,17.50
2023-03-30T11:09:15.112Z,9.00
2023-03-30T11:10:23.516Z,4.40
2023-03-30T11:11:35.938Z,11.20
2023-03-30T11:12:46.765Z,11.50
2023-03-30T11:13:58.756Z,10.70
2023-03-30T11:15:13.436Z,6.07
2023-03-30T11:16:34.016Z,13.47
2023-03-30T11:17:56.843Z,10.03
2023-03-30T11:19:05.642Z,14.83
2023-03-30T11:20:23.915Z,4.60
2023-03-30T11:21:34.989Z,5.93
2023-03-30T11:23:01.851Z,12.30
2023-03-30T11:24:11.992Z,10.10
2023-03-30T11:25:30.154Z,11.53
2023-03-30T11:26:40.119Z,8.97
2023-03-30T11:27:56.622Z,9.83
2023-03-30T11:29:28.100Z,5.80
2023-03-30T11:30:34.407Z,10.77
2023-03-30T11:31:48.012Z,13.90
2023-03-30T11:32:59.031Z,11.38
2023-03-30T11:34:23.197Z,11.23
2023-03-30T11:35:46.608Z,11.83
2023-03-30T11:37:02.210Z,10.97
2023-03-30T11:38:22.176Z,6.23
2023-03-30T11:39:32.574Z,13.13
2023-03-30T11:40:46.672Z,7.67
2023-03-30T11:41:48.408Z,9.97
2023-03-30T11:42:50.916Z,14.27
2023-03-30T11:43:57.688Z,9.73
2023-03-30T11:45:25.821Z,15.50
2023-03-30T11:46:37.524Z,7.30
2023-03-30T11:47:45.489Z,10.53
2023-03-30T11:48:53.311Z,11.40
2023-03-30T11:50:24.420Z,21.47
2023-03-30T11:51:45.621Z,7.90
2023-03-30T11:53:01.382Z,9.90
2023-03-30T11:54:44.996Z,5.70
2023-03-30T11:56:13.724Z,5.37
2023-03-30T11:57:52.680Z,10.30
2023-03-30T11:59:07.741Z,6.60
2023-03-30T12:00:35.266Z,8.50
2023-03-30T12:02:15.802Z,6.20
2023-03-30T12:03:43.226Z,13.33
2023-03-30T12:04:50.253Z,8.33
2023-03-30T12:06:00.449Z,8.20
2023-03-30T12:07:02.528Z,7.97
2023-03-30T12:08:37.774Z,7.57
2023-03-30T12:09:51.937Z,7.10
2023-03-30T12:11:25.218Z,11.10
2023-03-30T12:12:32.979Z,5.13
2023-03-30T12:13:50.313Z,7.22
2023-03-30T12:15:11.129Z,11.10
2023-03-30T12:16:44.842Z,7.77
2023-03-30T12:17:51.904Z,7.20
2023-03-30T12:19:16.014Z,9.67
2023-03-30T12:20:40.453Z,9.43
2023-03-30T12:22:03.337Z,4.10
2023-03-30T12:23:32.633Z,4.30
2023-03-30T12:24:54.254Z,7.27
2023-03-30T12:26:11.332Z,5.27
2023-03-30T12:27:13.224Z,9.88
2023-03-30T12:28:17.327Z,6.67
2023-03-30T12:30:00.249Z,13.13
2023-03-30T12:30:58.999Z,10.53
2023-03-30T12:32:03.918Z,7.20
2023-03-30T12:33:18.662Z,11.50
2023-03-30T12:34:21.990Z,9.18
2023-03-30T12:35:54.984Z,10.73
2023-03-30T12:36:58.153Z,7.10
2023-03-30T12:38:00.313Z,6.30
2023-03-30T12:39:02.959Z,7.73
2023-03-30T12:40:22.307Z,9.43
2023-03-30T12:41:27.835Z,6.00
2023-03-30T12:42:35.693Z,5.63
2023-03-30T12:43:42.625Z,6.53
2023-03-30T12:44:49.856Z,5.93
2023-03-30T12:46:20.737Z,6.40
2023-03-30T12:47:33.634Z,10.40
2023-03-30T12:49:33.913Z,10.23
2023-03-30T12:50:47.883Z,9.63
2023-03-30T12:52:04.566Z,4.47
2023-03-30T12:53:24.668Z,8.37
2023-03-30T12:54:54.296Z,17.73
2023-03-30T12:55:56.268Z,8.13
2023-03-30T12:57:28.582Z,4.20
2023-03-30T12:58:58.174Z,4.67
2023-03-30T13:00:36.928Z,14.73
2023-03-30T13:02:03.774Z,7.77
2023-03-30T13:03:26.741Z,3.73
2023-03-30T13:04:38.684Z,6.40
2023-03-30T13:05:43.686Z,11.23
2023-03-30T13:06:52.634Z,14.80
2023-03-30T13:07:56.077Z,5.03
2023-03-30T13:09:04.630Z,6.43
2023-03-30T13:10:29.724Z,5.83
2023-03-30T13:11:45.904Z,5.90
2023-03-30T13:12:49.894Z,7.93
2023-03-30T13:13:59.440Z,3.95
2023-03-30T13:15:25.160Z,11.43
2023-03-30T13:17:06.662Z,5.43
2023-03-30T13:18:11.424Z,5.10
2023-03-30T13:19:32.902Z,4.70
2023-03-30T13:20:59.846Z,4.70
2023-03-30T13:22:11.671Z,6.00
2023-03-30T13:23:13.732Z,6.60
2023-03-30T13:24:36.373Z,10.43
2023-03-30T13:25:39.185Z,6.55
2023-03-30T13:26:44.702Z,4.00
2023-03-30T13:27:50.853Z,3.80
2023-03-30T13:28:55.554Z,4.30
2023-03-30T13:30:10.332Z,4.93
2023-03-30T13:31:43.335Z,5.27
2023-03-30T13:33:05.129Z,6.40
2023-03-30T13:34:10.571Z,5.43
2023-03-30T13:36:08.845Z,8.07
2023-03-30T13:37:32.000Z,5.77
2023-03-30T13:38:43.992Z,7.13
2023-03-30T13:39:48.574Z,9.23
2023-03-30T13:41:24.798Z,7.60
2023-03-30T13:42:57.462Z,4.60
2023-03-30T13:44:26.494Z,4.93
2023-03-30T13:46:13.291Z,5.47
2023-03-30T13:47:41.936Z,4.80
2023-03-30T13:48:55.690Z,9.57
2023-03-30T13:50:03.720Z,6.53
2023-03-30T13:51:12.955Z,9.35
2023-03-30T13:52:28.466Z,12.97
2023-03-30T13:53:52.878Z,7.80
2023-03-30T13:54:54.631Z,7.13
2023-03-30T13:55:58.199Z,11.33
2023-03-30T13:57:07.695Z,9.90
2023-03-30T13:58:14.037Z,10.77
2023-03-30T13:59:26.314Z,11.30
2023-03-30T14:00:45.262Z,8.75
2023-03-30T14:01:57.114Z,5.17
2023-03-30T14:03:16.034Z,8.97
2023-03-30T14:04:18.321Z,7.60
2023-03-30T14:05:25.236Z,15.00
2023-03-30T14:06:31.233Z,5.73
2023-03-30T14:07:44.320Z,6.40
2023-03-30T14:08:58.125Z,7.15
2023-03-30T14:10:19.804Z,3.33
2023-03-30T14:11:27.612Z,5.33
2023-03-30T14:12:31.183Z,5.20
2023-03-30T14:13:34.301Z,5.63
2023-03-30T14:14:47.027Z,3.40
2023-03-30T14:15:51.883Z,9.47
2023-03-30T14:16:54.505Z,4.50
2023-03-30T14:18:01.207Z,3.87
2023-03-30T14:19:27.936Z,4.13
2023-03-30T14:21:04.305Z,4.53
2023-03-30T14:22:14.412Z,8.70
2023-03-30T14:23:23.468Z,3.80
2023-03-30T14:24:33.164Z,4.60
2023-03-30T14:25:41.665Z,4.30
2023-03-30T14:26:46.313Z,3.40
2023-03-30T14:27:48.607Z,7.68
2023-03-30T14:28:56.180Z,10.50
2023-03-30T14:29:58.354Z,4.33
2023-03-30T14:31:06.008Z,4.03
2023-03-30T14:32:14.979Z,7.77
2023-03-30T14:33:19.064Z,6.40
2023-03-30T14:34:27.289Z,5.85
2023-03-30T14:35:30.228Z,5.22
2023-03-30T14:36:33.629Z,6.47
2023-03-30T14:37:37.402Z,4.13
2023-03-30T14:38:41.270Z,7.57
2023-03-30T14:39:47.514Z,12.47
2023-03-30T14:40:52.826Z,2.97
2023-03-30T14:41:56.756Z,4.83
2023-03-30T14:43:02.226Z,5.40
2023-03-30T14:44:06.654Z,7.00
2023-03-30T14:45:11.074Z,8.07
2023-03-30T14:46:13.634Z,6.10
2023-03-30T14:47:19.284Z,4.83
2023-03-30T14:48:46.956Z,2.00
2023-03-30T14:49:57.456Z,4.17
2023-03-30T14:51:02.231Z,3.87
2023-03-30T14:52:23.489Z,2.60
2023-03-30T14:53:30.320Z,4.10
2023-03-30T14:54:32.576Z,8.67